Terminal Aerodrome Forecast
Issued by NWS

Home | Current Version | Previous Version | Text Only | Print | Product List | Glossary On
Versions: 1 2 3 4 5 6 7 8 9 10 11 12 13 14 15 16 17 18
000
FTUS45 KMSO 261140
TAFSMN
TAF
KSMN 261140Z 2612/2712 VRB04KT P6SM BKN025
     FM261500 VRB05KT P6SM BKN100
     FM262000 36006KT P6SM VCSH BKN070
     FM270200 VRB04KT P6SM BKN100
      AMD LTD TO CLD VIS AND WIND=

USA.gov is the U.S. government's official web portal to all federal, state and local government web resources and services.